Time;durP1;ratioP1;P1;durP2;ratioP2;P2;SDS_P1;SDS_P2;PMS_P1;PMS_P2;Temp;Humidity;BMP_temperature;BMP_pressure;BME280_temperature;BME280_humidity;BME280_pressure;Samples;Min_cycle;Max_cycle;Signal;HPM_P1;HPM_P2
2022/05/16 00:00:26;;;;;;;;;11.00;11.00;;;;;14.35;67.88;99822.06;6309249;20;3513884;-48
2022/05/16 00:02:56;;;;;;;;;15.00;12.00;;;;;14.71;66.40;99826.50;6317087;20;2800343;-51
2022/05/16 00:05:24;;;;;;;;;13.00;10.00;;;;;15.02;64.88;99826.88;6281561;20;2781564;-52
2022/05/16 00:07:53;;;;;;;;;13.00;13.00;;;;;14.96;64.89;99821.94;6280021;20;2798406;-49
2022/05/16 00:10:23;;;;;;;;;11.67;10.33;;;;;14.89;65.14;99816.13;6311431;20;3512771;-50
2022/05/16 00:12:51;;;;;;;;;15.00;15.00;;;;;14.99;64.75;99821.69;6313737;20;2810686;-52
2022/05/16 00:15:24;;;;;;;;;10.00;10.00;;;;;14.80;65.31;99821.41;6306839;20;2781571;-53
2022/05/16 00:17:53;;;;;;;;;15.33;13.00;;;;;14.85;65.31;99830.00;6279906;20;3544015;-50
2022/05/16 00:20:23;;;;;;;;;14.33;13.00;;;;;14.74;65.26;99825.41;6277666;20;3526289;-51
2022/05/16 00:22:51;;;;;;;;;13.33;11.67;;;;;14.54;66.50;99809.88;6310112;20;3508582;-52
2022/05/16 00:25:20;;;;;;;;;10.00;9.50;;;;;14.49;66.52;99808.34;6311343;20;2773262;-49
2022/05/16 00:27:49;;;;;;;;;12.33;12.33;;;;;14.08;68.11;99802.50;6281712;20;3515866;-50
2022/05/16 00:30:20;;;;;;;;;13.00;12.00;;;;;13.87;68.97;99810.34;6311896;20;3532653;-52
2022/05/16 00:32:49;;;;;;;;;14.00;14.00;;;;;13.90;68.83;99805.59;6309144;20;3535756;-51
2022/05/16 00:35:21;;;;;;;;;12.00;12.00;;;;;13.66;69.72;99802.81;6311060;20;3542000;-51
2022/05/16 00:37:51;;;;;;;;;15.00;13.67;;;;;13.77;69.70;99805.63;6306873;20;3526067;-53
2022/05/16 00:40:20;;;;;;;;;13.00;13.00;;;;;13.86;69.07;99809.47;6310765;20;3526299;-50
2022/05/16 00:42:49;;;;;;;;;12.67;12.67;;;;;14.00;69.03;99816.56;6308837;20;3516937;-50
2022/05/16 00:45:18;;;;;;;;;14.50;13.00;;;;;13.96;69.13;99812.38;6313679;20;2798194;-51
2022/05/16 00:47:48;;;;;;;;;19.00;13.00;;;;;14.14;68.89;99823.63;6279464;20;2682565;-51
2022/05/16 00:50:16;;;;;;;;;11.00;11.00;;;;;14.11;68.71;99819.31;6310731;20;2789925;-53
2022/05/16 00:52:49;;;;;;;;;13.00;11.00;;;;;13.94;69.30;99823.28;6311164;20;2789889;-51
2022/05/16 00:55:36;;;;;;;;;19.67;15.33;;;;;13.72;70.70;99813.19;6279512;20;3552420;-52
2022/05/16 00:58:12;;;;;;;;;14.67;14.00;;;;;14.05;68.80;99820.63;6308296;20;3530515;-50
2022/05/16 01:00:45;;;;;;;;;13.00;13.00;;;;;13.73;70.87;99822.16;6274118;20;3525323;-49
2022/05/16 01:06:08;;;;;;;;;16.00;12.67;;;;;13.89;70.54;99827.28;6276326;20;3539833;-48
2022/05/16 01:08:43;;;;;;;;;13.33;13.33;;;;;13.73;71.28;99823.00;6276896;20;3537755;-51
2022/05/16 01:11:15;;;;;;;;;13.00;11.33;;;;;13.60;71.37;99816.78;6316748;20;2787919;-51
2022/05/16 01:13:43;;;;;;;;;14.67;13.00;;;;;13.73;70.82;99825.69;6312557;20;3533609;-49
2022/05/16 01:16:12;;;;;;;;;15.33;14.00;;;;;13.39;72.57;99825.41;6316667;20;3534709;-49
2022/05/16 01:18:40;;;;;;;;;16.00;13.50;;;;;13.75;71.13;99829.16;6286890;20;2815992;-48
2022/05/16 01:21:17;;;;;;;;;16.00;13.00;;;;;13.59;71.75;99833.94;6286863;20;2812880;-49
2022/05/16 01:24:02;;;;;;;;;12.67;12.67;;;;;13.15;73.31;99827.13;6285062;20;3519277;-51
2022/05/16 01:26:32;;;;;;;;;16.00;14.00;;;;;13.45;72.44;99836.75;6315922;20;2815214;-52
2022/05/16 01:29:02;;;;;;;;;15.00;14.33;;;;;12.87;74.98;99831.72;6285356;20;3539190;-49
2022/05/16 01:31:31;;;;;;;;;13.50;13.00;;;;;13.16;74.10;99826.16;6317403;20;2803445;-51
2022/05/16 01:34:01;;;;;;;;;12.00;12.00;;;;;13.23;73.38;99831.97;6287681;20;2795242;-53
2022/05/16 01:36:30;;;;;;;;;15.67;15.00;;;;;12.77;75.00;99825.28;6285551;20;3546083;-50
2022/05/16 01:38:58;;;;;;;;;18.00;17.00;;;;;12.77;75.36;99824.38;6283181;20;2491935;-54
2022/05/16 01:41:27;;;;;;;;;18.00;18.00;;;;;12.56;76.96;99832.09;6287153;20;2824228;-50
2022/05/16 01:44:00;;;;;;;;;16.00;15.00;;;;;13.00;75.48;99825.50;6316513;20;3550270;-52
2022/05/16 01:46:37;;;;;;;;;18.00;18.00;;;;;12.57;76.30;99831.13;6280994;20;2489842;-51
2022/05/16 01:49:10;;;;;;;;;15.00;15.00;;;;;12.33;78.12;99826.44;6285738;20;3528375;-50
2022/05/16 01:51:40;;;;;;;;;19.50;19.50;;;;;12.27;77.71;99826.84;6314547;20;2491935;-51
2022/05/16 01:54:09;;;;;;;;;19.00;17.00;;;;;12.48;75.92;99833.50;6281777;20;2491996;-49
2022/05/16 01:56:37;;;;;;;;;18.00;14.00;;;;;12.68;74.91;99828.56;6284902;20;2811831;-48
2022/05/16 01:59:07;;;;;;;;;14.00;13.00;;;;;11.79;77.86;99823.66;6280716;20;3545093;-47
2022/05/16 02:01:35;;;;;;;;;17.00;16.00;;;;;11.77;79.11;99822.88;6316382;20;2814877;-51
2022/05/16 02:04:03;;;;;;;;;18.00;16.50;;;;;12.50;75.43;99828.84;6282645;20;2494041;-51
2022/05/16 02:06:31;;;;;;;;;18.00;18.00;;;;;11.95;77.49;99829.78;6284139;20;2496105;-50
2022/05/16 02:08:59;;;;;;;;;15.50;15.00;;;;;12.53;75.27;99830.47;6285780;20;2810692;-51
2022/05/16 02:11:28;;;;;;;;;17.00;16.00;;;;;11.93;77.47;99829.06;6284742;20;3552354;-48
2022/05/16 02:13:56;;;;;;;;;22.50;20.00;;;;;11.97;78.05;99825.19;6281498;20;2841948;-50
2022/05/16 02:16:25;;;;;;;;;18.00;15.67;;;;;11.76;79.63;99826.56;6284089;20;3546236;-49
2022/05/16 02:18:53;;;;;;;;;16.50;16.50;;;;;11.83;79.86;99822.50;6284456;20;2831664;-50
2022/05/16 02:26:55;;;;;;;;;20.00;17.00;;;;;12.26;76.94;99830.50;6282270;20;2498321;-52
2022/05/16 02:29:23;;;;;;;;;18.00;17.00;;;;;12.11;77.73;99839.56;6280253;20;2491956;-52
2022/05/16 02:31:52;;;;;;;;;25.00;20.00;;;;;11.79;79.32;99826.34;6283212;20;2839851;-50
2022/05/16 02:34:20;;;;;;;;;20.00;20.00;;;;;11.91;78.65;99841.75;6280281;20;2500230;-49
2022/05/16 02:36:48;;;;;;;;;17.00;17.00;;;;;11.97;77.83;99835.94;6284378;20;2831515;-50
2022/05/16 02:39:19;;;;;;;;;23.50;20.00;;;;;11.65;78.74;99836.16;6281324;20;2844031;-52
2022/05/16 02:41:46;;;;;;;;;21.50;20.00;;;;;12.06;77.72;99838.06;6282416;20;2500314;-49
2022/05/16 02:44:16;;;;;;;;;21.33;20.00;;;;;12.33;76.64;99834.50;6282345;20;3574292;-48
2022/05/16 02:46:44;;;;;;;;;24.50;21.00;;;;;12.31;76.95;99833.75;6281400;20;2852360;-51
2022/05/16 02:49:21;;;;;;;;;22.00;18.00;;;;;12.25;77.27;99839.53;6279780;20;2496115;-50
2022/05/16 02:51:50;;;;;;;;;17.67;17.00;;;;;12.46;76.75;99837.25;6284508;20;3568973;-52
2022/05/16 02:54:17;;;;;;;;;21.00;18.00;;;;;12.30;77.24;99832.03;6278803;20;2500345;-52
2022/05/16 02:56:45;;;;;;;;;19.50;18.50;;;;;12.20;77.13;99841.66;6282944;20;2500254;-54
2022/05/16 02:59:14;;;;;;;;;19.50;19.50;;;;;12.21;77.16;99844.25;6281746;20;2835959;-51
2022/05/16 03:01:42;;;;;;;;;21.00;21.00;;;;;11.97;77.77;99844.03;6287836;20;2491925;-50
2022/05/16 03:04:11;;;;;;;;;21.00;21.00;;;;;11.89;78.25;99838.28;6283266;20;2847159;-49
2022/05/16 03:06:39;;;;;;;;;20.50;20.50;;;;;11.63;79.38;99832.69;6280307;20;2500475;-49
2022/05/16 03:09:07;;;;;;;;;25.00;18.00;;;;;11.64;80.40;99839.81;6283189;20;2838802;-51
2022/05/16 03:11:36;;;;;;;;;24.00;20.00;;;;;11.79;78.71;99840.66;6280647;20;2845096;-50
2022/05/16 03:14:05;;;;;;;;;21.50;18.50;;;;;11.62;78.17;99830.13;6283590;20;2832568;-53
2022/05/16 03:16:35;;;;;;;;;22.00;20.00;;;;;11.26;80.48;99834.16;6281800;20;2837763;-51
2022/05/16 03:19:05;;;;;;;;;24.50;21.50;;;;;11.33;80.35;99834.66;6282570;20;2834813;-47
2022/05/16 03:21:34;;;;;;;;;25.50;21.00;;;;;10.93;82.42;99832.59;6279778;20;2837869;-52
2022/05/16 03:24:04;;;;;;;;;29.00;22.00;;;;;11.37;82.01;99834.38;6281055;20;2854506;-47
2022/05/16 03:26:32;;;;;;;;;23.50;23.50;;;;;11.20;82.34;99840.78;6275287;20;2500288;-49
2022/05/16 03:29:03;;;;;;;;;29.00;20.00;;;;;11.80;79.67;99838.84;6282187;20;2847234;-51
2022/05/16 03:31:32;;;;;;;;;20.50;19.50;;;;;11.76;79.93;99838.16;6311552;20;2833594;-52
2022/05/16 03:34:01;;;;;;;;;24.50;20.00;;;;;11.79;80.48;99846.03;6278901;20;2839914;-52
2022/05/16 03:36:30;;;;;;;;;26.00;23.00;;;;;12.18;78.70;99851.66;6279985;20;2850248;-50
2022/05/16 03:41:45;;;;;;;;;21.50;21.00;;;;;11.74;81.27;99849.97;6279708;20;2492384;-51
2022/05/16 03:44:13;;;;;;;;;21.50;20.50;;;;;11.81;81.89;99848.63;6280087;20;2843995;-54
2022/05/16 03:46:42;;;;;;;;;28.00;24.00;;;;;11.67;82.94;99848.66;6279787;20;2850299;-54
2022/05/16 03:49:12;;;;;;;;;25.00;25.00;;;;;11.91;81.71;99840.88;6281567;20;2855559;-52
2022/05/16 03:51:41;;;;;;;;;28.00;23.00;;;;;11.88;81.49;99850.00;6315045;20;3587741;-51
2022/05/16 03:54:11;;;;;;;;;25.50;21.00;;;;;12.50;78.98;99844.13;6278916;20;2830600;-51
2022/05/16 03:56:39;;;;;;;;;24.50;22.50;;;;;12.49;79.03;99854.06;6281115;20;2848295;-54
2022/05/16 03:59:11;;;;;;;;;24.00;23.00;;;;;12.68;79.16;99847.44;6277171;20;2847139;-52
2022/05/16 04:01:40;;;;;;;;;24.00;24.00;;;;;12.84;77.84;99848.09;6280470;20;2846182;-50
2022/05/16 04:04:12;;;;;;;;;23.67;23.67;;;;;12.56;79.94;99853.63;6313098;20;3585681;-53
2022/05/16 04:06:41;;;;;;;;;29.00;24.50;;;;;12.56;81.47;99854.53;6277075;20;2848173;-53
2022/05/16 04:09:09;;;;;;;;;24.00;21.00;;;;;12.84;79.55;99853.50;6281909;20;2846082;-53
2022/05/16 04:11:38;;;;;;;;;23.00;21.00;;;;;13.11;77.19;99852.56;6277465;20;2846094;-54
2022/05/16 04:14:07;;;;;;;;;23.50;20.00;;;;;14.33;70.54;99863.66;6281122;20;2844027;-51
2022/05/16 04:16:37;;;;;;;;;25.50;21.00;;;;;13.50;72.99;99866.94;6278200;20;2848200;-50
2022/05/16 04:19:07;;;;;;;;;24.00;20.50;;;;;12.98;74.83;99868.75;6279718;20;2844128;-50
2022/05/16 04:21:38;;;;;;;;;22.50;22.00;;;;;13.31;74.34;99857.47;6274556;20;2850295;-51
2022/05/16 04:24:08;;;;;;;;;24.50;22.00;;;;;13.76;74.24;99865.09;6280603;20;2846157;-51
2022/05/16 04:26:36;;;;;;;;;25.00;23.50;;;;;13.80;73.83;99867.47;6278576;20;2852372;-52
2022/05/16 04:29:05;;;;;;;;;20.00;19.00;;;;;14.23;73.50;99867.03;6278871;20;3584637;-52
2022/05/16 04:31:34;;;;;;;;;21.00;21.00;;;;;14.71;69.77;99869.75;6277174;20;2844038;-52
2022/05/16 04:34:09;;;;;;;;;20.50;19.00;;;;;14.25;72.05;99869.63;6278554;20;2838823;-49
2022/05/16 04:36:39;;;;;;;;;19.00;19.00;;;;;14.48;71.06;99870.59;6278739;20;2821108;-52
2022/05/16 04:39:08;;;;;;;;;24.00;22.00;;;;;14.29;72.00;99876.50;6281116;20;2843383;-52
2022/05/16 04:44:23;;;;;;;;;20.00;17.00;;;;;14.53;71.39;99879.25;6280498;20;2491990;-52
2022/05/16 04:46:52;;;;;;;;;20.50;20.00;;;;;14.89;70.60;99889.13;6275348;20;2841910;-51
2022/05/16 04:49:20;;;;;;;;;23.50;21.50;;;;;14.82;69.97;99884.31;6277484;20;2837754;-52
2022/05/16 04:51:49;;;;;;;;;23.00;19.50;;;;;14.90;69.96;99884.56;6278592;20;2842011;-53
2022/05/16 04:54:18;;;;;;;;;20.00;20.00;;;;;15.03;69.42;99884.50;6274568;20;2836717;-51
2022/05/16 04:56:47;;;;;;;;;21.00;20.50;;;;;15.07;69.54;99886.88;6282656;20;2840924;-56
2022/05/16 04:59:16;;;;;;;;;24.50;21.50;;;;;15.39;68.51;99886.19;6282844;20;2846104;-55
2022/05/16 05:01:44;;;;;;;;;21.00;20.50;;;;;15.78;67.97;99890.34;6284037;20;2839982;-54
2022/05/16 05:04:13;;;;;;;;;21.00;19.50;;;;;15.92;65.87;99891.06;6283224;20;2483588;-50
2022/05/16 05:06:43;;;;;;;;;19.00;18.00;;;;;16.13;65.03;99885.75;6277530;20;3570069;-53
2022/05/16 05:09:11;;;;;;;;;17.00;17.00;;;;;16.19;64.60;99887.97;6284744;20;2825291;-51
2022/05/16 05:14:33;;;;;;;;;20.00;18.00;;;;;16.81;63.85;99900.03;6284856;20;2837774;-55
2022/05/16 05:17:06;;;;;;;;;19.50;19.00;;;;;16.71;63.82;99905.34;6286234;20;2500250;-55
2022/05/16 05:19:42;;;;;;;;;19.00;18.00;;;;;17.03;63.45;99899.06;6282277;20;2831564;-56
2022/05/16 05:22:10;;;;;;;;;22.00;19.00;;;;;17.12;62.94;99895.59;6280918;20;2844005;-55
2022/05/16 05:24:39;;;;;;;;;22.00;20.00;;;;;17.26;62.52;99900.69;6286502;20;2839827;-56
2022/05/16 05:27:07;;;;;;;;;14.00;14.00;;;;;17.48;62.33;99901.53;6278994;20;2494042;-55
2022/05/16 05:29:36;;;;;;;;;23.00;17.00;;;;;17.83;61.62;99903.06;6284231;20;2829453;-56
2022/05/16 05:32:06;;;;;;;;;11.00;9.00;;;;;18.23;59.32;99902.22;6290252;20;2764010;-56
2022/05/16 05:34:37;;;;;;;;;15.50;15.50;;;;;18.13;60.01;99903.03;6286036;20;2496297;-50
2022/05/16 05:37:06;;;;;;;;;19.67;14.67;;;;;18.15;58.99;99903.75;6280636;20;3536721;-53
2022/05/16 05:39:35;;;;;;;;;12.67;12.67;;;;;18.61;56.88;99905.00;6282972;20;3528446;-50
2022/05/16 05:42:04;;;;;;;;;15.00;12.67;;;;;18.70;55.73;99903.31;6281882;20;3524366;-49
2022/05/16 05:44:33;;;;;;;;;12.00;10.67;;;;;18.96;54.89;99913.69;6284965;20;2789920;-48
2022/05/16 05:47:01;;;;;;;;;8.50;8.00;;;;;19.01;54.46;99917.69;6322238;20;2750296;-53
2022/05/16 05:49:30;;;;;;;;;12.33;10.33;;;;;19.31;53.27;99913.09;6284648;20;3517947;-49
2022/05/16 05:51:59;;;;;;;;;10.33;10.33;;;;;19.54;51.36;99924.53;6311044;20;3510757;-48
2022/05/16 05:54:27;;;;;;;;;13.00;12.00;;;;;19.55;51.86;99926.25;6319550;20;2786766;-52
2022/05/16 05:56:55;;;;;;;;;10.00;10.00;;;;;19.59;51.79;99926.78;6282433;20;2786052;-51
2022/05/16 05:59:25;;;;;;;;;10.60;10.60;;;;;19.83;51.95;99920.91;6339799;20;2791894;-50
2022/05/16 06:01:55;;;;;;;;;8.00;8.00;;;;;19.98;50.06;99926.72;6311309;20;2754410;-51
2022/05/16 06:04:25;;;;;;;;;7.20;7.20;;;;;20.08;48.02;99927.56;6309548;20;2743998;-53
2022/05/16 06:06:54;;;;;;;;;6.00;6.00;;;;;20.24;47.56;99929.63;6339246;20;2739992;-51
2022/05/16 06:09:22;;;;;;;;;5.00;5.00;;;;;19.99;46.87;99929.31;6314756;20;2735745;-55
2022/05/16 06:11:50;;;;;;;;;9.00;7.00;;;;;20.18;47.60;99931.94;6287211;20;2739916;-49
2022/05/16 06:14:17;;;;;;;;;7.00;7.00;;;;;20.52;46.13;99927.78;6284937;20;2735730;-52
2022/05/16 06:16:47;;;;;;;;;11.00;8.40;;;;;20.56;46.73;99930.09;6312355;20;2769044;-53
2022/05/16 06:19:15;;;;;;;;;11.00;6.00;;;;;20.81;45.81;99928.47;6282608;20;2753375;-53
2022/05/16 06:21:45;;;;;;;;;6.60;5.80;;;;;20.95;44.68;99934.41;6311654;20;2735675;-54
2022/05/16 06:26:59;;;;;;;;;7.33;5.67;;;;;;;;6291667;20;2740904;-53
2022/05/16 06:29:28;;;;;;;;;4.33;4.33;;;;;21.24;42.99;99932.28;6321718;20;2748282;-50
2022/05/16 06:31:57;;;;;;;;;8.80;6.00;;;;;21.74;43.82;99932.72;6341502;20;2733671;-52
2022/05/16 06:34:27;;;;;;;;;5.00;4.40;;;;;21.94;40.57;99936.97;6342150;20;2742989;-52
2022/05/16 06:36:56;;;;;;;;;7.00;7.00;;;;;21.72;42.03;99940.22;6312091;20;2745076;-51
2022/05/16 06:39:24;;;;;;;;;6.00;6.00;;;;;21.91;42.21;99931.81;6317710;20;2744081;-52
2022/05/16 06:41:54;;;;;;;;;5.60;5.60;;;;;22.24;41.43;99935.59;6339405;20;2737766;-52
2022/05/16 06:44:23;;;;;;;;;7.00;5.20;;;;;22.55;40.89;99929.59;6340123;20;2745038;-53
2022/05/16 06:46:53;;;;;;;;;6.40;4.00;;;;;22.67;40.06;99933.75;6307244;20;2752353;-55
2022/05/16 06:49:22;;;;;;;;;5.00;5.00;;;;;22.64;39.54;99924.97;6316495;20;2736749;-55
2022/05/16 06:51:51;;;;;;;;;4.60;4.60;;;;;23.00;38.82;99942.91;6339754;20;2742028;-54
2022/05/16 06:54:21;;;;;;;;;9.00;7.00;;;;;23.30;39.07;99935.06;6341335;20;2737771;-54
2022/05/16 06:56:50;;;;;;;;;6.00;6.00;;;;;23.73;37.48;99938.50;6344782;20;2746192;-50
2022/05/16 06:59:19;;;;;;;;;6.00;6.00;;;;;24.00;38.25;99950.13;6312465;20;2735658;-52
2022/05/16 07:01:49;;;;;;;;;6.40;6.40;;;;;23.83;37.75;99950.16;6343605;20;2740951;-50
2022/05/16 07:04:19;;;;;;;;;7.60;5.60;;;;;24.83;37.82;99941.41;6313123;20;2737795;-51
2022/05/16 07:06:48;;;;;;;;;5.20;5.00;;;;;24.56;36.54;99948.22;6339812;20;2748226;-53
2022/05/16 07:09:17;;;;;;;;;4.67;4.67;;;;;24.59;35.68;99941.53;6284736;20;2745095;-50
2022/05/16 07:11:47;;;;;;;;;7.60;4.00;;;;;24.65;35.67;99958.16;6343791;20;2749363;-51
2022/05/16 07:14:16;;;;;;;;;6.20;4.80;;;;;24.98;36.28;99939.56;6309827;20;2733013;-53
2022/05/16 07:16:48;;;;;;;;;4.00;3.67;;;;;25.59;34.23;99955.31;6366484;20;1791557;-54
2022/05/16 07:19:17;;;;;;;;;4.00;4.00;;;;;25.37;34.90;99951.53;6338814;20;2741959;-56
2022/05/16 07:21:47;;;;;;;;;4.80;3.40;;;;;25.54;32.58;99955.88;6343732;20;2752823;-54
2022/05/16 07:24:15;;;;;;;;;5.00;5.00;;;;;25.24;34.46;99952.16;6284078;20;2746102;-55
2022/05/16 07:29:33;;;;;;;;;2.60;2.60;;;;;24.95;33.28;99961.06;6340544;20;2744042;-54
2022/05/16 07:32:03;;;;;;;;;3.20;3.20;;;;;25.28;33.75;99956.25;6310689;20;2739927;-55
2022/05/16 07:34:33;;;;;;;;;4.75;4.75;;;;;26.05;32.69;99964.34;6338368;20;2623328;-58
2022/05/16 07:37:01;;;;;;;;;3.00;3.00;;;;;25.88;33.35;99968.31;6322305;20;2740860;-56
2022/05/16 07:39:31;;;;;;;;;6.00;5.20;;;;;25.77;33.99;99966.81;6341748;20;2725267;-56
2022/05/16 07:42:03;;;;;;;;;4.20;4.20;;;;;26.17;33.24;99958.38;6342419;20;2756485;-54
2022/05/16 07:44:37;;;;;;;;;11.20;6.60;;;;;26.13;32.70;99960.66;6312574;20;2753396;-50
2022/05/16 07:47:07;;;;;;;;;5.00;5.00;;;;;26.07;32.45;99966.94;6286282;20;2736830;-52
2022/05/16 07:49:36;;;;;;;;;5.60;5.60;;;;;26.31;32.18;99963.03;6343312;20;2742985;-54
2022/05/16 07:52:05;;;;;;;;;6.00;6.00;;;;;25.42;32.60;99968.34;6288332;20;2734661;-53
2022/05/16 07:54:37;;;;;;;;;8.40;7.20;;;;;26.53;32.44;99960.41;6343016;20;2726278;-50
2022/05/16 07:57:06;;;;;;;;;6.40;5.20;;;;;27.06;31.92;99967.41;6310767;20;2748191;-53
2022/05/16 07:59:35;;;;;;;;;6.00;6.00;;;;;26.24;31.53;99954.69;6286725;20;2742115;-53
2022/05/16 08:02:04;;;;;;;;;5.00;5.00;;;;;25.68;32.42;99956.09;6338627;20;2740960;-53
2022/05/16 08:04:34;;;;;;;;;4.80;4.80;;;;;24.97;34.43;99957.09;6311031;20;2739848;-52
2022/05/16 08:07:04;;;;;;;;;8.00;5.00;;;;;25.71;32.23;99952.97;6288066;20;2733604;-50
2022/05/16 08:12:37;;;;;;;;;5.00;5.00;;;;;24.91;34.07;99959.75;6311015;20;2738799;-53
2022/05/16 08:15:08;;;;;;;;;6.40;4.40;;;;;25.08;33.37;99957.72;6343418;20;2731509;-49
2022/05/16 08:17:37;;;;;;;;;5.60;4.60;;;;;25.64;33.53;99966.59;6337835;20;2736748;-49
2022/05/16 08:20:09;;;;;;;;;7.40;6.60;;;;;26.28;31.66;99957.94;6315761;20;2742994;-50
2022/05/16 08:22:38;;;;;;;;;6.20;5.40;;;;;26.34;32.73;99953.56;6346770;20;2741257;-51
2022/05/16 08:25:07;;;;;;;;;6.00;4.00;;;;;27.22;32.75;99959.97;6293009;20;2741926;-52
2022/05/16 08:27:35;;;;;;;;;6.00;6.00;;;;;26.32;31.97;99959.25;6323427;20;2737766;-55
2022/05/16 08:30:07;;;;;;;;;4.40;4.00;;;;;26.32;34.06;99959.25;6348175;20;2739894;-58
2022/05/16 08:32:40;;;;;;;;;8.67;6.33;;;;;26.20;33.02;99960.78;6321271;20;2748223;-55
2022/05/16 08:35:13;;;;;;;;;6.00;6.00;;;;;26.47;32.40;99959.25;6324884;20;2735707;-53
2022/05/16 08:41:05;;;;;;;;;7.67;6.33;;;;;26.20;32.99;99960.78;6329336;20;2744079;-52
2022/05/16 08:44:29;;;;;;;;;7.33;6.33;;;;;25.95;34.29;99969.28;6320355;20;2742020;-54
2022/05/16 08:47:14;;;;;;;;;8.00;6.67;;;;;25.58;34.49;99970.94;6368329;20;1796311;-52
2022/05/16 08:49:57;;;;;;;;;8.20;7.00;;;;;25.72;33.79;99968.44;6347774;20;2749229;-54
2022/05/16 08:52:50;;;;;;;;;8.40;5.60;;;;;24.92;34.69;99961.44;6314935;20;2744031;-53
2022/05/16 08:55:50;;;;;;;;;6.67;6.67;;;;;25.35;33.96;99956.38;6288922;20;2738816;-53
2022/05/16 08:59:09;;;;;;;;;5.33;5.33;;;;;25.45;34.01;99956.97;6318956;20;2748280;-51
2022/05/16 09:01:38;;;;;;;;;5.00;5.00;;;;;25.92;35.10;99952.28;6317768;20;2736849;-52
2022/05/16 09:04:24;;;;;;;;;5.00;5.00;;;;;26.25;33.76;99955.53;6345708;20;2719154;-57
2022/05/16 09:07:46;;;;;;;;;6.00;6.00;;;;;26.20;34.11;99952.50;6346373;20;2736756;-50
2022/05/16 09:11:00;;;;;;;;;7.00;7.00;;;;;27.45;32.69;99957.03;6311198;20;2745146;-53
2022/05/16 09:13:42;;;;;;;;;7.00;6.00;;;;;27.08;33.06;99959.81;6343041;20;2743078;-55
2022/05/16 09:16:26;;;;;;;;;8.00;7.33;;;;;26.32;32.45;99950.97;6284896;20;2741938;-51
2022/05/16 09:19:37;;;;;;;;;8.00;8.00;;;;;26.41;32.73;99951.72;6317345;20;2749245;-51
2022/05/16 09:22:28;;;;;;;;;12.00;10.00;;;;;26.91;30.53;99956.44;6315967;20;2783624;-53
2022/05/16 09:25:52;;;;;;;;;7.00;7.00;;;;;26.54;31.69;99954.72;6343681;20;2746162;-50
2022/05/16 09:28:46;;;;;;;;;7.20;6.00;;;;;25.73;32.18;99953.66;6311577;20;2743178;-54
2022/05/16 09:31:42;;;;;;;;;6.40;6.40;;;;;26.28;32.75;99946.91;6308523;20;2735733;-49
2022/05/16 09:34:14;;;;;;;;;6.00;6.00;;;;;27.15;31.87;99954.38;6309599;20;2735774;-52
2022/05/16 09:36:50;;;;;;;;;6.67;6.67;;;;;27.03;31.35;99945.75;6286926;20;2743473;-54
2022/05/16 09:39:35;;;;;;;;;6.20;6.20;;;;;26.91;32.52;99942.66;6339658;20;2739946;-52
2022/05/16 09:42:54;;;;;;;;;5.60;5.60;;;;;28.14;31.20;99948.06;6306773;20;2746082;-52
2022/05/16 09:45:29;;;;;;;;;6.33;6.00;;;;;28.15;30.92;99939.59;6291858;20;2742974;-55
2022/05/16 09:47:59;;;;;;;;;8.00;6.80;;;;;27.34;30.23;99936.38;6342636;20;2742990;-56
2022/05/16 09:50:28;;;;;;;;;4.60;4.20;;;;;28.52;30.92;99940.25;6312709;20;2732661;-56
2022/05/16 09:53:07;;;;;;;;;6.00;5.00;;;;;27.07;31.34;99929.69;6347011;20;2729462;-53
2022/05/16 09:55:46;;;;;;;;;5.67;5.67;;;;;26.93;31.86;99929.53;6322224;20;2739949;-50
2022/05/16 09:58:51;;;;;;;;;8.40;6.40;;;;;26.51;31.88;99924.75;6345833;20;2736700;-55
2022/05/16 10:01:49;;;;;;;;;7.60;6.00;;;;;26.75;32.05;99920.84;6310438;20;2735707;-51
2022/05/16 10:05:25;;;;;;;;;6.67;4.67;;;;;27.24;29.82;99925.66;6286916;20;2745177;-54
2022/05/16 10:08:11;;;;;;;;;7.80;7.40;;;;;27.02;32.78;99915.66;6340528;20;2733629;-55
2022/05/16 10:10:47;;;;;;;;;10.00;6.33;;;;;26.41;32.53;99911.31;6288006;20;2759649;-54
2022/05/16 10:13:17;;;;;;;;;4.60;4.60;;;;;26.51;32.36;99905.47;6343723;20;2739927;-57
2022/05/16 10:15:50;;;;;;;;;7.00;7.00;;;;;26.40;31.66;99909.56;6288002;20;2748168;-53
2022/05/16 10:18:24;;;;;;;;;7.67;7.67;;;;;26.59;33.55;99902.63;6318843;20;2750392;-55
2022/05/16 10:21:06;;;;;;;;;6.00;6.00;;;;;26.89;30.57;99900.66;6315654;20;2741992;-54
2022/05/16 10:23:42;;;;;;;;;7.00;5.20;;;;;27.00;31.96;99901.22;6345674;20;2739830;-54
2022/05/16 10:26:25;;;;;;;;;5.00;5.00;;;;;26.90;33.85;99902.38;6290122;20;2732582;-55
2022/05/16 10:29:13;;;;;;;;;8.00;8.00;;;;;26.62;32.73;99904.16;6322392;20;2744027;-54
2022/05/16 10:35:02;;;;;;;;;5.00;5.00;;;;;26.81;31.33;99906.31;6321306;20;2732615;-56
2022/05/16 10:37:33;;;;;;;;;7.67;7.00;;;;;27.55;31.67;99900.47;6316849;20;2738848;-54
2022/05/16 10:40:29;;;;;;;;;8.33;7.33;;;;;27.00;31.48;99895.69;6318380;20;2750332;-54
2022/05/16 10:43:42;;;;;;;;;8.60;6.00;;;;;27.06;30.28;99904.00;6345463;20;2727380;-55
2022/05/16 10:46:22;;;;;;;;;5.00;5.00;;;;;27.95;30.29;99889.75;6320904;20;2738927;-52
2022/05/16 10:49:17;;;;;;;;;7.33;6.00;;;;;28.40;29.21;99897.66;6318791;20;2742980;-56
2022/05/16 10:52:23;;;;;;;;;6.00;6.00;;;;;28.16;29.30;99891.59;6317643;20;2746072;-55
2022/05/16 10:54:55;;;;;;;;;7.00;6.67;;;;;27.94;29.15;99892.75;6323673;20;2736702;-54
2022/05/16 10:58:15;;;;;;;;;7.00;5.67;;;;;27.83;29.83;99879.47;6318127;20;2740877;-52
2022/05/16 11:01:21;;;;;;;;;7.00;6.33;;;;;27.97;29.43;99878.53;6319888;20;2731613;-56
2022/05/16 11:04:23;;;;;;;;;5.40;4.20;;;;;28.64;27.38;99877.78;6342070;20;2745095;-53
2022/05/16 11:06:59;;;;;;;;;7.00;6.00;;;;;28.78;28.26;99888.88;6288714;20;2730536;-56
2022/05/16 11:09:52;;;;;;;;;5.33;5.33;;;;;28.83;27.50;99886.34;6319185;20;2737935;-52
2022/05/16 11:12:54;;;;;;;;;7.33;7.33;;;;;28.82;26.76;99879.13;6319891;20;2739914;-53
2022/05/16 11:16:01;;;;;;;;;5.00;5.00;;;;;29.98;27.39;99885.16;6344038;20;2752324;-57
2022/05/16 11:19:23;;;;;;;;;7.33;6.33;;;;;29.42;27.37;99879.25;6294758;20;2740889;-57
2022/05/16 11:22:13;;;;;;;;;11.00;7.00;;;;;29.74;27.13;99883.94;6316012;20;2749259;-57
2022/05/16 11:25:19;;;;;;;;;6.67;6.67;;;;;29.27;28.38;99885.81;6326087;20;2734621;-53
2022/05/16 11:28:16;;;;;;;;;6.67;6.67;;;;;28.04;29.54;99882.16;6323894;20;2737732;-56
2022/05/16 11:31:00;;;;;;;;;6.00;6.00;;;;;28.06;29.47;99880.06;6314969;20;2734643;-55
2022/05/16 11:33:55;;;;;;;;;7.00;7.00;;;;;27.69;29.95;99873.84;6316579;20;2743980;-56
2022/05/16 11:36:57;;;;;;;;;9.33;7.67;;;;;27.20;30.58;99871.97;6316603;20;2762853;-56
2022/05/16 11:39:52;;;;;;;;;8.00;8.00;;;;;27.05;32.43;99865.63;6316501;20;2740915;-55
2022/05/16 11:43:21;;;;;;;;;8.00;8.00;;;;;27.75;30.89;99867.53;6316687;20;2748189;-55
2022/05/16 11:46:13;;;;;;;;;7.60;6.60;;;;;27.59;30.29;99862.31;6340093;20;2744258;-55
2022/05/16 11:49:09;;;;;;;;;7.67;7.00;;;;;27.99;29.71;99860.72;6284898;20;2737966;-57
2022/05/16 11:52:51;;;;;;;;;7.40;6.20;;;;;28.70;30.03;99848.50;6341432;20;2737790;-55
2022/05/16 12:01:39;;;;;;;;;8.00;7.00;;;;;28.72;30.03;99837.22;6291955;20;2744431;-54
2022/05/16 12:04:14;;;;;;;;;10.67;9.67;;;;;28.92;31.12;99824.31;6317947;20;2779418;-56
2022/05/16 12:06:59;;;;;;;;;7.33;7.33;;;;;28.49;29.32;99829.28;6318298;20;2741920;-52
2022/05/16 12:09:32;;;;;;;;;6.00;6.00;;;;;28.91;29.92;99833.63;6317473;20;2743990;-55
2022/05/16 12:12:12;;;;;;;;;10.33;7.00;;;;;29.24;29.27;99828.16;6316535;20;2769149;-56
2022/05/16 12:14:43;;;;;;;;;4.67;4.67;;;;;29.06;28.61;99823.28;6316045;20;2734721;-57
2022/05/16 12:17:14;;;;;;;;;10.00;8.67;;;;;29.26;30.04;99816.91;6315277;20;2768052;-55
2022/05/16 12:19:50;;;;;;;;;8.00;8.00;;;;;29.07;29.13;99819.47;6317365;20;2752338;-56
2022/05/16 12:22:37;;;;;;;;;8.33;8.00;;;;;29.53;30.32;99820.50;6315491;20;2744040;-57
2022/05/16 12:25:33;;;;;;;;;8.33;6.67;;;;;29.59;29.85;99814.09;6319420;20;2733598;-53